sensor_id;sensor_type;location;lat;lon;timestamp;P1;durP1;ratioP1;P2;durP2;ratioP2
73337;SDS011;61575;49.908;35.556;2024-02-23T00:01:04;31.00;;;12.47;;
73337;SDS011;61575;49.908;35.556;2024-02-23T00:04:06;27.63;;;11.00;;
73337;SDS011;61575;49.908;35.556;2024-02-23T00:07:09;26.75;;;12.27;;
73337;SDS011;61575;49.908;35.556;2024-02-23T00:10:11;29.08;;;11.80;;
73337;SDS011;61575;49.908;35.556;2024-02-23T00:13:13;25.23;;;10.55;;
73337;SDS011;61575;49.908;35.556;2024-02-23T00:16:15;25.55;;;11.23;;
73337;SDS011;61575;49.908;35.556;2024-02-23T00:19:17;22.33;;;10.13;;
73337;SDS011;61575;49.908;35.556;2024-02-23T00:22:21;33.78;;;17.60;;
73337;SDS011;61575;49.908;35.556;2024-02-23T00:25:23;21.80;;;9.93;;
73337;SDS011;61575;49.908;35.556;2024-02-23T00:28:26;23.50;;;11.60;;
73337;SDS011;61575;49.908;35.556;2024-02-23T00:31:27;27.50;;;13.80;;
73337;SDS011;61575;49.908;35.556;2024-02-23T00:34:30;27.47;;;12.77;;
73337;SDS011;61575;49.908;35.556;2024-02-23T00:37:34;24.75;;;10.80;;
73337;SDS011;61575;49.908;35.556;2024-02-23T00:40:37;25.75;;;11.77;;
73337;SDS011;61575;49.908;35.556;2024-02-23T00:43:40;26.15;;;10.95;;
73337;SDS011;61575;49.908;35.556;2024-02-23T00:46:42;35.60;;;12.80;;
73337;SDS011;61575;49.908;35.556;2024-02-23T00:49:44;23.52;;;10.55;;
73337;SDS011;61575;49.908;35.556;2024-02-23T00:52:47;27.33;;;11.70;;
73337;SDS011;61575;49.908;35.556;2024-02-23T00:55:48;26.80;;;11.05;;
73337;SDS011;61575;49.908;35.556;2024-02-23T00:58:51;27.13;;;10.93;;
73337;SDS011;61575;49.908;35.556;2024-02-23T01:01:54;21.17;;;9.40;;
73337;SDS011;61575;49.908;35.556;2024-02-23T01:04:57;25.08;;;10.32;;
73337;SDS011;61575;49.908;35.556;2024-02-23T01:08:00;25.92;;;9.80;;
73337;SDS011;61575;49.908;35.556;2024-02-23T01:11:03;24.87;;;10.13;;
73337;SDS011;61575;49.908;35.556;2024-02-23T01:14:05;23.88;;;9.50;;
73337;SDS011;61575;49.908;35.556;2024-02-23T01:17:08;23.25;;;9.38;;
73337;SDS011;61575;49.908;35.556;2024-02-23T01:20:10;25.30;;;9.20;;
73337;SDS011;61575;49.908;35.556;2024-02-23T01:23:12;23.50;;;9.03;;
73337;SDS011;61575;49.908;35.556;2024-02-23T01:26:14;24.33;;;9.63;;
73337;SDS011;61575;49.908;35.556;2024-02-23T01:29:16;27.63;;;8.73;;
73337;SDS011;61575;49.908;35.556;2024-02-23T01:32:18;26.02;;;9.35;;
73337;SDS011;61575;49.908;35.556;2024-02-23T01:35:20;21.95;;;9.02;;
73337;SDS011;61575;49.908;35.556;2024-02-23T01:38:23;27.73;;;10.68;;
73337;SDS011;61575;49.908;35.556;2024-02-23T01:41:26;26.35;;;9.52;;
73337;SDS011;61575;49.908;35.556;2024-02-23T01:44:29;24.40;;;9.38;;
73337;SDS011;61575;49.908;35.556;2024-02-23T01:47:32;23.43;;;9.80;;
73337;SDS011;61575;49.908;35.556;2024-02-23T01:50:35;26.95;;;9.60;;
73337;SDS011;61575;49.908;35.556;2024-02-23T01:53:38;22.73;;;8.88;;
73337;SDS011;61575;49.908;35.556;2024-02-23T01:56:40;25.42;;;10.73;;
73337;SDS011;61575;49.908;35.556;2024-02-23T01:59:42;23.53;;;9.63;;
73337;SDS011;61575;49.908;35.556;2024-02-23T02:02:45;24.75;;;9.50;;
73337;SDS011;61575;49.908;35.556;2024-02-23T02:05:49;23.60;;;10.43;;
73337;SDS011;61575;49.908;35.556;2024-02-23T02:08:52;25.00;;;10.10;;
73337;SDS011;61575;49.908;35.556;2024-02-23T02:14:57;23.85;;;9.70;;
73337;SDS011;61575;49.908;35.556;2024-02-23T02:18:02;24.88;;;8.77;;
73337;SDS011;61575;49.908;35.556;2024-02-23T02:21:04;26.27;;;10.10;;
73337;SDS011;61575;49.908;35.556;2024-02-23T02:24:06;24.42;;;9.10;;
73337;SDS011;61575;49.908;35.556;2024-02-23T02:27:08;22.38;;;9.32;;
73337;SDS011;61575;49.908;35.556;2024-02-23T02:30:11;25.43;;;10.10;;
73337;SDS011;61575;49.908;35.556;2024-02-23T02:33:14;22.27;;;9.25;;
73337;SDS011;61575;49.908;35.556;2024-02-23T02:36:16;21.95;;;9.55;;
73337;SDS011;61575;49.908;35.556;2024-02-23T02:39:18;26.80;;;10.90;;
73337;SDS011;61575;49.908;35.556;2024-02-23T02:42:20;22.15;;;8.98;;
73337;SDS011;61575;49.908;35.556;2024-02-23T02:45:23;22.63;;;9.30;;
73337;SDS011;61575;49.908;35.556;2024-02-23T02:48:25;24.70;;;9.75;;
73337;SDS011;61575;49.908;35.556;2024-02-23T02:51:27;22.07;;;9.03;;
73337;SDS011;61575;49.908;35.556;2024-02-23T02:54:29;24.33;;;9.73;;
73337;SDS011;61575;49.908;35.556;2024-02-23T02:57:31;24.70;;;9.70;;
73337;SDS011;61575;49.908;35.556;2024-02-23T03:00:33;26.00;;;11.00;;
73337;SDS011;61575;49.908;35.556;2024-02-23T03:03:36;22.88;;;9.32;;
73337;SDS011;61575;49.908;35.556;2024-02-23T03:06:38;23.37;;;9.73;;
73337;SDS011;61575;49.908;35.556;2024-02-23T03:09:40;25.73;;;10.55;;
73337;SDS011;61575;49.908;35.556;2024-02-23T03:12:42;23.55;;;10.30;;
73337;SDS011;61575;49.908;35.556;2024-02-23T03:15:44;25.63;;;10.52;;
73337;SDS011;61575;49.908;35.556;2024-02-23T03:18:46;26.77;;;10.70;;
73337;SDS011;61575;49.908;35.556;2024-02-23T03:21:49;25.00;;;10.73;;
73337;SDS011;61575;49.908;35.556;2024-02-23T03:24:51;24.55;;;9.63;;
73337;SDS011;61575;49.908;35.556;2024-02-23T03:27:53;27.65;;;12.27;;
73337;SDS011;61575;49.908;35.556;2024-02-23T03:30:55;24.23;;;10.17;;
73337;SDS011;61575;49.908;35.556;2024-02-23T03:33:58;24.10;;;9.80;;
73337;SDS011;61575;49.908;35.556;2024-02-23T03:37:01;24.08;;;9.57;;
73337;SDS011;61575;49.908;35.556;2024-02-23T03:40:05;29.38;;;12.43;;
73337;SDS011;61575;49.908;35.556;2024-02-23T03:43:08;29.23;;;13.90;;
73337;SDS011;61575;49.908;35.556;2024-02-23T03:46:09;28.63;;;13.27;;
73337;SDS011;61575;49.908;35.556;2024-02-23T03:49:13;28.73;;;12.00;;
73337;SDS011;61575;49.908;35.556;2024-02-23T03:52:15;25.50;;;11.13;;
73337;SDS011;61575;49.908;35.556;2024-02-23T03:55:17;27.40;;;12.07;;
73337;SDS011;61575;49.908;35.556;2024-02-23T03:58:19;22.60;;;9.75;;
73337;SDS011;61575;49.908;35.556;2024-02-23T04:01:21;22.98;;;9.25;;
73337;SDS011;61575;49.908;35.556;2024-02-23T04:04:24;24.90;;;10.40;;
73337;SDS011;61575;49.908;35.556;2024-02-23T04:07:26;26.13;;;11.13;;
73337;SDS011;61575;49.908;35.556;2024-02-23T04:10:28;23.50;;;10.27;;
73337;SDS011;61575;49.908;35.556;2024-02-23T04:13:30;24.13;;;11.57;;
73337;SDS011;61575;49.908;35.556;2024-02-23T04:16:32;30.35;;;9.07;;
73337;SDS011;61575;49.908;35.556;2024-02-23T04:19:34;26.80;;;10.97;;
73337;SDS011;61575;49.908;35.556;2024-02-23T04:22:36;22.93;;;9.87;;
73337;SDS011;61575;49.908;35.556;2024-02-23T04:25:39;27.33;;;10.50;;
73337;SDS011;61575;49.908;35.556;2024-02-23T04:28:41;31.48;;;9.40;;
73337;SDS011;61575;49.908;35.556;2024-02-23T04:31:44;24.60;;;10.98;;
73337;SDS011;61575;49.908;35.556;2024-02-23T04:34:46;25.50;;;10.05;;
73337;SDS011;61575;49.908;35.556;2024-02-23T04:37:48;28.43;;;10.67;;
73337;SDS011;61575;49.908;35.556;2024-02-23T04:40:51;30.15;;;11.23;;
73337;SDS011;61575;49.908;35.556;2024-02-23T04:43:53;24.10;;;9.35;;
73337;SDS011;61575;49.908;35.556;2024-02-23T04:47:04;33.08;;;12.25;;
73337;SDS011;61575;49.908;35.556;2024-02-23T04:50:07;27.52;;;9.57;;
73337;SDS011;61575;49.908;35.556;2024-02-23T04:53:09;32.08;;;11.02;;
73337;SDS011;61575;49.908;35.556;2024-02-23T04:56:11;31.10;;;11.70;;
73337;SDS011;61575;49.908;35.556;2024-02-23T04:59:13;22.40;;;8.27;;
73337;SDS011;61575;49.908;35.556;2024-02-23T05:05:18;31.13;;;10.65;;
73337;SDS011;61575;49.908;35.556;2024-02-23T05:08:20;52.10;;;16.87;;
73337;SDS011;61575;49.908;35.556;2024-02-23T05:11:22;50.50;;;21.00;;
73337;SDS011;61575;49.908;35.556;2024-02-23T05:14:24;28.88;;;12.35;;
73337;SDS011;61575;49.908;35.556;2024-02-23T05:20:29;35.83;;;11.32;;
73337;SDS011;61575;49.908;35.556;2024-02-23T05:23:31;38.47;;;13.07;;
73337;SDS011;61575;49.908;35.556;2024-02-23T05:26:35;33.40;;;11.88;;
73337;SDS011;61575;49.908;35.556;2024-02-23T05:29:37;34.85;;;10.95;;
73337;SDS011;61575;49.908;35.556;2024-02-23T05:32:39;30.20;;;10.65;;
73337;SDS011;61575;49.908;35.556;2024-02-23T05:35:42;36.75;;;9.98;;
73337;SDS011;61575;49.908;35.556;2024-02-23T05:38:44;22.67;;;7.70;;
73337;SDS011;61575;49.908;35.556;2024-02-23T05:41:47;25.70;;;8.60;;
73337;SDS011;61575;49.908;35.556;2024-02-23T05:44:49;27.47;;;8.33;;
73337;SDS011;61575;49.908;35.556;2024-02-23T05:47:51;25.83;;;9.45;;
73337;SDS011;61575;49.908;35.556;2024-02-23T05:50:54;29.55;;;9.23;;
73337;SDS011;61575;49.908;35.556;2024-02-23T05:53:56;25.17;;;10.38;;
73337;SDS011;61575;49.908;35.556;2024-02-23T05:56:58;26.15;;;9.38;;
73337;SDS011;61575;49.908;35.556;2024-02-23T06:00:00;29.58;;;9.35;;
73337;SDS011;61575;49.908;35.556;2024-02-23T06:03:11;27.42;;;9.82;;
73337;SDS011;61575;49.908;35.556;2024-02-23T06:09:16;27.55;;;9.20;;
73337;SDS011;61575;49.908;35.556;2024-02-23T06:12:18;36.53;;;13.87;;
73337;SDS011;61575;49.908;35.556;2024-02-23T06:15:20;29.30;;;12.32;;
73337;SDS011;61575;49.908;35.556;2024-02-23T06:18:22;31.15;;;11.75;;
73337;SDS011;61575;49.908;35.556;2024-02-23T06:21:24;25.40;;;9.07;;
73337;SDS011;61575;49.908;35.556;2024-02-23T06:24:27;27.10;;;9.00;;
73337;SDS011;61575;49.908;35.556;2024-02-23T06:27:29;35.93;;;10.67;;
73337;SDS011;61575;49.908;35.556;2024-02-23T06:30:31;31.35;;;10.98;;
73337;SDS011;61575;49.908;35.556;2024-02-23T06:33:33;33.92;;;9.65;;
73337;SDS011;61575;49.908;35.556;2024-02-23T06:36:36;35.23;;;11.47;;
73337;SDS011;61575;49.908;35.556;2024-02-23T06:39:39;30.75;;;10.57;;
73337;SDS011;61575;49.908;35.556;2024-02-23T06:42:41;31.13;;;10.70;;
73337;SDS011;61575;49.908;35.556;2024-02-23T06:45:42;31.33;;;10.35;;
73337;SDS011;61575;49.908;35.556;2024-02-23T06:48:45;34.07;;;11.20;;
73337;SDS011;61575;49.908;35.556;2024-02-23T06:51:47;43.45;;;12.13;;
73337;SDS011;61575;49.908;35.556;2024-02-23T06:54:50;36.22;;;11.40;;
73337;SDS011;61575;49.908;35.556;2024-02-23T06:57:52;31.08;;;11.18;;
73337;SDS011;61575;49.908;35.556;2024-02-23T07:00:54;32.70;;;11.33;;
73337;SDS011;61575;49.908;35.556;2024-02-23T07:03:56;31.43;;;11.27;;
73337;SDS011;61575;49.908;35.556;2024-02-23T07:06:58;31.47;;;12.90;;
73337;SDS011;61575;49.908;35.556;2024-02-23T07:10:00;30.00;;;11.80;;
73337;SDS011;61575;49.908;35.556;2024-02-23T07:13:02;22.92;;;9.77;;
73337;SDS011;61575;49.908;35.556;2024-02-23T07:16:07;32.17;;;12.48;;
73337;SDS011;61575;49.908;35.556;2024-02-23T07:19:09;39.17;;;13.95;;
73337;SDS011;61575;49.908;35.556;2024-02-23T07:22:12;31.50;;;13.32;;
73337;SDS011;61575;49.908;35.556;2024-02-23T07:25:17;32.53;;;12.97;;
73337;SDS011;61575;49.908;35.556;2024-02-23T07:28:22;41.95;;;13.95;;
73337;SDS011;61575;49.908;35.556;2024-02-23T07:31:24;28.52;;;10.82;;
73337;SDS011;61575;49.908;35.556;2024-02-23T07:34:27;36.20;;;12.68;;
73337;SDS011;61575;49.908;35.556;2024-02-23T07:37:29;32.37;;;13.63;;
73337;SDS011;61575;49.908;35.556;2024-02-23T07:40:31;29.67;;;10.97;;
73337;SDS011;61575;49.908;35.556;2024-02-23T07:43:33;25.93;;;9.57;;
73337;SDS011;61575;49.908;35.556;2024-02-23T07:46:35;28.73;;;10.43;;
73337;SDS011;61575;49.908;35.556;2024-02-23T07:49:38;29.20;;;11.48;;
73337;SDS011;61575;49.908;35.556;2024-02-23T07:52:42;32.22;;;12.27;;
73337;SDS011;61575;49.908;35.556;2024-02-23T07:55:44;34.57;;;13.70;;
73337;SDS011;61575;49.908;35.556;2024-02-23T07:58:46;29.20;;;10.73;;
73337;SDS011;61575;49.908;35.556;2024-02-23T08:01:48;33.40;;;11.73;;
73337;SDS011;61575;49.908;35.556;2024-02-23T08:04:50;31.33;;;11.73;;
73337;SDS011;61575;49.908;35.556;2024-02-23T08:07:54;33.30;;;11.23;;
73337;SDS011;61575;49.908;35.556;2024-02-23T08:10:56;29.00;;;11.47;;
73337;SDS011;61575;49.908;35.556;2024-02-23T08:13:58;30.73;;;11.83;;
73337;SDS011;61575;49.908;35.556;2024-02-23T08:17:00;33.07;;;12.87;;
73337;SDS011;61575;49.908;35.556;2024-02-23T08:20:02;35.37;;;13.97;;
73337;SDS011;61575;49.908;35.556;2024-02-23T08:23:05;33.60;;;13.00;;
73337;SDS011;61575;49.908;35.556;2024-02-23T08:26:07;32.97;;;11.83;;
73337;SDS011;61575;49.908;35.556;2024-02-23T08:29:11;34.22;;;12.95;;
73337;SDS011;61575;49.908;35.556;2024-02-23T08:32:14;33.35;;;13.88;;
73337;SDS011;61575;49.908;35.556;2024-02-23T08:35:16;37.47;;;13.80;;
73337;SDS011;61575;49.908;35.556;2024-02-23T08:38:18;36.90;;;14.10;;
73337;SDS011;61575;49.908;35.556;2024-02-23T08:41:20;37.43;;;14.17;;
73337;SDS011;61575;49.908;35.556;2024-02-23T08:44:22;38.88;;;13.93;;
73337;SDS011;61575;49.908;35.556;2024-02-23T08:47:24;30.33;;;12.77;;
73337;SDS011;61575;49.908;35.556;2024-02-23T08:50:29;36.58;;;13.10;;
73337;SDS011;61575;49.908;35.556;2024-02-23T08:53:32;34.85;;;13.38;;
73337;SDS011;61575;49.908;35.556;2024-02-23T08:56:38;36.90;;;13.27;;
73337;SDS011;61575;49.908;35.556;2024-02-23T08:59:41;35.60;;;13.20;;
73337;SDS011;61575;49.908;35.556;2024-02-23T09:02:43;35.53;;;13.60;;
73337;SDS011;61575;49.908;35.556;2024-02-23T09:05:45;37.30;;;13.37;;
73337;SDS011;61575;49.908;35.556;2024-02-23T09:08:48;32.33;;;12.82;;
73337;SDS011;61575;49.908;35.556;2024-02-23T09:11:50;34.83;;;13.47;;
73337;SDS011;61575;49.908;35.556;2024-02-23T09:14:52;32.75;;;13.20;;
73337;SDS011;61575;49.908;35.556;2024-02-23T09:17:55;35.43;;;14.57;;
73337;SDS011;61575;49.908;35.556;2024-02-23T09:20:57;33.97;;;13.32;;
73337;SDS011;61575;49.908;35.556;2024-02-23T09:23:59;42.27;;;14.63;;
73337;SDS011;61575;49.908;35.556;2024-02-23T09:27:01;36.10;;;13.77;;
73337;SDS011;61575;49.908;35.556;2024-02-23T09:30:04;35.67;;;13.75;;
73337;SDS011;61575;49.908;35.556;2024-02-23T09:33:08;41.58;;;15.95;;
73337;SDS011;61575;49.908;35.556;2024-02-23T09:36:10;36.80;;;13.98;;
73337;SDS011;61575;49.908;35.556;2024-02-23T09:39:12;36.97;;;15.52;;
73337;SDS011;61575;49.908;35.556;2024-02-23T09:42:14;41.15;;;15.15;;
73337;SDS011;61575;49.908;35.556;2024-02-23T09:45:16;46.45;;;19.75;;
73337;SDS011;61575;49.908;35.556;2024-02-23T09:48:19;40.20;;;17.55;;
73337;SDS011;61575;49.908;35.556;2024-02-23T09:51:23;41.60;;;17.55;;
73337;SDS011;61575;49.908;35.556;2024-02-23T09:54:27;43.60;;;16.48;;
73337;SDS011;61575;49.908;35.556;2024-02-23T09:57:29;41.30;;;16.60;;
73337;SDS011;61575;49.908;35.556;2024-02-23T10:00:31;44.17;;;17.55;;
73337;SDS011;61575;49.908;35.556;2024-02-23T10:03:36;44.53;;;16.98;;
73337;SDS011;61575;49.908;35.556;2024-02-23T10:06:39;45.65;;;18.92;;
73337;SDS011;61575;49.908;35.556;2024-02-23T10:09:41;48.70;;;20.15;;
73337;SDS011;61575;49.908;35.556;2024-02-23T10:12:44;49.83;;;17.88;;
73337;SDS011;61575;49.908;35.556;2024-02-23T10:15:47;54.75;;;19.77;;
73337;SDS011;61575;49.908;35.556;2024-02-23T10:19:09;49.47;;;19.48;;
73337;SDS011;61575;49.908;35.556;2024-02-23T10:22:12;51.55;;;19.67;;
73337;SDS011;61575;49.908;35.556;2024-02-23T10:25:14;49.22;;;18.02;;
73337;SDS011;61575;49.908;35.556;2024-02-23T10:28:16;46.03;;;18.45;;
73337;SDS011;61575;49.908;35.556;2024-02-23T10:31:18;46.07;;;18.57;;
73337;SDS011;61575;49.908;35.556;2024-02-23T10:34:20;43.15;;;17.42;;
73337;SDS011;61575;49.908;35.556;2024-02-23T10:37:23;43.63;;;18.00;;
73337;SDS011;61575;49.908;35.556;2024-02-23T10:40:26;47.45;;;19.17;;
73337;SDS011;61575;49.908;35.556;2024-02-23T10:43:33;45.03;;;17.38;;
73337;SDS011;61575;49.908;35.556;2024-02-23T10:46:48;50.80;;;18.05;;
73337;SDS011;61575;49.908;35.556;2024-02-23T10:49:52;45.03;;;18.10;;
73337;SDS011;61575;49.908;35.556;2024-02-23T10:52:56;45.03;;;17.65;;
73337;SDS011;61575;49.908;35.556;2024-02-23T10:55:59;38.17;;;15.70;;
73337;SDS011;61575;49.908;35.556;2024-02-23T10:59:01;41.38;;;17.35;;
73337;SDS011;61575;49.908;35.556;2024-02-23T11:02:03;42.67;;;17.17;;
73337;SDS011;61575;49.908;35.556;2024-02-23T11:05:07;41.38;;;16.30;;
73337;SDS011;61575;49.908;35.556;2024-02-23T11:08:11;48.70;;;19.25;;
73337;SDS011;61575;49.908;35.556;2024-02-23T11:11:16;39.17;;;15.48;;
73337;SDS011;61575;49.908;35.556;2024-02-23T11:14:28;41.17;;;15.75;;
73337;SDS011;61575;49.908;35.556;2024-02-23T11:17:35;41.92;;;16.45;;
73337;SDS011;61575;49.908;35.556;2024-02-23T11:20:39;37.35;;;16.55;;
73337;SDS011;61575;49.908;35.556;2024-02-23T11:23:41;40.00;;;15.93;;
73337;SDS011;61575;49.908;35.556;2024-02-23T11:26:55;39.83;;;15.85;;
73337;SDS011;61575;49.908;35.556;2024-02-23T11:30:05;39.78;;;16.60;;
73337;SDS011;61575;49.908;35.556;2024-02-23T11:33:09;39.13;;;16.40;;
73337;SDS011;61575;49.908;35.556;2024-02-23T11:36:11;41.70;;;17.97;;
73337;SDS011;61575;49.908;35.556;2024-02-23T11:39:13;43.92;;;18.70;;
73337;SDS011;61575;49.908;35.556;2024-02-23T11:42:16;35.87;;;16.27;;
73337;SDS011;61575;49.908;35.556;2024-02-23T11:45:19;37.92;;;15.55;;
73337;SDS011;61575;49.908;35.556;2024-02-23T11:48:21;39.08;;;16.23;;
73337;SDS011;61575;49.908;35.556;2024-02-23T11:51:25;36.97;;;16.17;;
73337;SDS011;61575;49.908;35.556;2024-02-23T11:54:30;41.60;;;16.48;;
73337;SDS011;61575;49.908;35.556;2024-02-23T11:57:33;41.80;;;17.33;;
73337;SDS011;61575;49.908;35.556;2024-02-23T12:00:47;40.03;;;17.15;;
73337;SDS011;61575;49.908;35.556;2024-02-23T12:03:49;43.13;;;18.00;;
73337;SDS011;61575;49.908;35.556;2024-02-23T12:06:52;40.03;;;16.33;;
73337;SDS011;61575;49.908;35.556;2024-02-23T12:09:54;41.90;;;18.17;;
73337;SDS011;61575;49.908;35.556;2024-02-23T12:12:57;39.00;;;17.50;;
73337;SDS011;61575;49.908;35.556;2024-02-23T12:16:00;44.10;;;17.23;;
73337;SDS011;61575;49.908;35.556;2024-02-23T12:19:03;47.15;;;18.33;;
73337;SDS011;61575;49.908;35.556;2024-02-23T12:22:05;42.05;;;17.33;;
73337;SDS011;61575;49.908;35.556;2024-02-23T12:25:07;37.85;;;16.80;;
73337;SDS011;61575;49.908;35.556;2024-02-23T12:28:10;47.58;;;19.30;;
73337;SDS011;61575;49.908;35.556;2024-02-23T12:31:12;42.95;;;18.02;;
73337;SDS011;61575;49.908;35.556;2024-02-23T12:34:14;44.25;;;18.75;;
73337;SDS011;61575;49.908;35.556;2024-02-23T12:37:17;42.33;;;17.23;;
73337;SDS011;61575;49.908;35.556;2024-02-23T12:40:19;40.88;;;18.20;;
73337;SDS011;61575;49.908;35.556;2024-02-23T12:43:22;42.53;;;16.73;;
73337;SDS011;61575;49.908;35.556;2024-02-23T12:46:25;43.58;;;17.08;;
73337;SDS011;61575;49.908;35.556;2024-02-23T12:49:27;38.35;;;15.98;;
73337;SDS011;61575;49.908;35.556;2024-02-23T12:52:29;43.07;;;18.03;;
73337;SDS011;61575;49.908;35.556;2024-02-23T12:55:32;44.90;;;17.23;;
73337;SDS011;61575;49.908;35.556;2024-02-23T12:58:34;43.47;;;16.95;;
73337;SDS011;61575;49.908;35.556;2024-02-23T13:01:37;41.90;;;17.73;;
73337;SDS011;61575;49.908;35.556;2024-02-23T13:04:46;42.08;;;17.00;;
73337;SDS011;61575;49.908;35.556;2024-02-23T13:07:51;48.75;;;18.40;;
73337;SDS011;61575;49.908;35.556;2024-02-23T13:10:53;41.57;;;18.27;;
73337;SDS011;61575;49.908;35.556;2024-02-23T13:13:56;42.13;;;17.08;;
73337;SDS011;61575;49.908;35.556;2024-02-23T13:16:58;40.25;;;16.80;;
73337;SDS011;61575;49.908;35.556;2024-02-23T13:20:00;39.75;;;18.05;;
73337;SDS011;61575;49.908;35.556;2024-02-23T13:23:12;39.08;;;16.33;;
73337;SDS011;61575;49.908;35.556;2024-02-23T13:26:14;39.72;;;16.77;;
73337;SDS011;61575;49.908;35.556;2024-02-23T13:29:16;43.00;;;17.60;;
73337;SDS011;61575;49.908;35.556;2024-02-23T13:32:20;38.85;;;15.85;;
73337;SDS011;61575;49.908;35.556;2024-02-23T13:35:22;41.58;;;17.58;;
73337;SDS011;61575;49.908;35.556;2024-02-23T13:38:35;39.05;;;16.85;;
73337;SDS011;61575;49.908;35.556;2024-02-23T13:41:40;40.33;;;16.67;;
73337;SDS011;61575;49.908;35.556;2024-02-23T13:44:42;39.17;;;16.58;;
73337;SDS011;61575;49.908;35.556;2024-02-23T13:47:54;39.83;;;16.90;;
73337;SDS011;61575;49.908;35.556;2024-02-23T13:51:00;45.60;;;19.38;;
73337;SDS011;61575;49.908;35.556;2024-02-23T13:54:05;53.05;;;22.30;;
73337;SDS011;61575;49.908;35.556;2024-02-23T13:57:07;38.90;;;17.20;;
73337;SDS011;61575;49.908;35.556;2024-02-23T14:00:09;50.40;;;21.20;;
73337;SDS011;61575;49.908;35.556;2024-02-23T14:03:16;40.45;;;17.80;;
73337;SDS011;61575;49.908;35.556;2024-02-23T14:06:23;40.60;;;17.30;;
73337;SDS011;61575;49.908;35.556;2024-02-23T14:09:25;36.30;;;16.75;;
73337;SDS011;61575;49.908;35.556;2024-02-23T14:12:27;36.92;;;16.08;;
73337;SDS011;61575;49.908;35.556;2024-02-23T14:15:29;40.90;;;17.97;;
73337;SDS011;61575;49.908;35.556;2024-02-23T14:18:31;38.95;;;19.23;;
73337;SDS011;61575;49.908;35.556;2024-02-23T14:21:38;39.60;;;16.80;;
73337;SDS011;61575;49.908;35.556;2024-02-23T14:24:40;58.70;;;24.47;;
73337;SDS011;61575;49.908;35.556;2024-02-23T14:27:42;43.72;;;20.73;;
73337;SDS011;61575;49.908;35.556;2024-02-23T14:30:45;43.73;;;20.30;;
73337;SDS011;61575;49.908;35.556;2024-02-23T14:33:47;38.40;;;16.92;;
73337;SDS011;61575;49.908;35.556;2024-02-23T14:36:52;55.53;;;22.98;;
73337;SDS011;61575;49.908;35.556;2024-02-23T14:39:54;40.65;;;17.23;;
73337;SDS011;61575;49.908;35.556;2024-02-23T14:42:56;42.70;;;17.57;;
73337;SDS011;61575;49.908;35.556;2024-02-23T14:45:58;54.08;;;22.02;;
73337;SDS011;61575;49.908;35.556;2024-02-23T14:49:00;56.42;;;22.85;;
73337;SDS011;61575;49.908;35.556;2024-02-23T14:52:02;48.33;;;20.87;;
73337;SDS011;61575;49.908;35.556;2024-02-23T14:55:04;47.37;;;19.63;;
73337;SDS011;61575;49.908;35.556;2024-02-23T14:58:07;37.08;;;16.35;;
73337;SDS011;61575;49.908;35.556;2024-02-23T15:01:09;35.83;;;17.00;;
73337;SDS011;61575;49.908;35.556;2024-02-23T15:04:11;37.97;;;17.85;;
73337;SDS011;61575;49.908;35.556;2024-02-23T15:07:15;38.85;;;18.20;;
73337;SDS011;61575;49.908;35.556;2024-02-23T15:10:18;40.35;;;19.63;;
73337;SDS011;61575;49.908;35.556;2024-02-23T15:13:20;36.55;;;15.88;;
73337;SDS011;61575;49.908;35.556;2024-02-23T15:16:22;37.17;;;18.10;;
73337;SDS011;61575;49.908;35.556;2024-02-23T15:19:25;37.17;;;17.55;;
73337;SDS011;61575;49.908;35.556;2024-02-23T15:22:29;30.42;;;14.57;;
73337;SDS011;61575;49.908;35.556;2024-02-23T15:25:31;35.70;;;16.13;;
73337;SDS011;61575;49.908;35.556;2024-02-23T15:31:36;33.92;;;14.82;;
73337;SDS011;61575;49.908;35.556;2024-02-23T15:34:41;40.38;;;16.83;;
73337;SDS011;61575;49.908;35.556;2024-02-23T15:37:44;34.25;;;15.93;;
73337;SDS011;61575;49.908;35.556;2024-02-23T15:40:46;32.35;;;17.23;;
73337;SDS011;61575;49.908;35.556;2024-02-23T15:43:51;34.10;;;17.83;;
73337;SDS011;61575;49.908;35.556;2024-02-23T15:46:53;35.17;;;19.43;;
73337;SDS011;61575;49.908;35.556;2024-02-23T15:49:56;32.33;;;15.90;;
73337;SDS011;61575;49.908;35.556;2024-02-23T15:53:18;34.95;;;18.33;;
73337;SDS011;61575;49.908;35.556;2024-02-23T15:56:20;29.55;;;13.52;;
73337;SDS011;61575;49.908;35.556;2024-02-23T15:59:22;39.70;;;18.17;;
73337;SDS011;61575;49.908;35.556;2024-02-23T16:02:24;46.40;;;20.90;;
73337;SDS011;61575;49.908;35.556;2024-02-23T16:05:29;79.43;;;39.70;;
73337;SDS011;61575;49.908;35.556;2024-02-23T16:08:38;33.93;;;15.00;;
73337;SDS011;61575;49.908;35.556;2024-02-23T16:11:48;33.70;;;15.98;;
73337;SDS011;61575;49.908;35.556;2024-02-23T16:14:50;41.08;;;18.27;;
73337;SDS011;61575;49.908;35.556;2024-02-23T16:17:52;40.03;;;17.92;;
73337;SDS011;61575;49.908;35.556;2024-02-23T16:20:54;32.27;;;15.87;;
73337;SDS011;61575;49.908;35.556;2024-02-23T16:23:56;35.85;;;17.35;;
73337;SDS011;61575;49.908;35.556;2024-02-23T16:26:58;40.85;;;18.98;;
73337;SDS011;61575;49.908;35.556;2024-02-23T16:30:01;46.35;;;23.90;;
73337;SDS011;61575;49.908;35.556;2024-02-23T16:33:04;34.63;;;14.85;;
73337;SDS011;61575;49.908;35.556;2024-02-23T16:36:06;38.92;;;19.55;;
73337;SDS011;61575;49.908;35.556;2024-02-23T16:39:08;48.17;;;24.90;;
73337;SDS011;61575;49.908;35.556;2024-02-23T16:42:10;80.85;;;42.47;;
73337;SDS011;61575;49.908;35.556;2024-02-23T16:45:12;81.10;;;44.43;;
73337;SDS011;61575;49.908;35.556;2024-02-23T16:48:14;131.38;;;65.47;;
73337;SDS011;61575;49.908;35.556;2024-02-23T16:51:17;48.00;;;20.80;;
73337;SDS011;61575;49.908;35.556;2024-02-23T16:54:20;137.20;;;58.55;;
73337;SDS011;61575;49.908;35.556;2024-02-23T16:57:22;182.63;;;83.95;;
73337;SDS011;61575;49.908;35.556;2024-02-23T17:00:24;36.13;;;17.40;;
73337;SDS011;61575;49.908;35.556;2024-02-23T17:03:29;33.90;;;17.38;;
73337;SDS011;61575;49.908;35.556;2024-02-23T17:06:31;28.55;;;13.90;;
73337;SDS011;61575;49.908;35.556;2024-02-23T17:09:33;43.67;;;22.58;;
73337;SDS011;61575;49.908;35.556;2024-02-23T17:12:36;64.50;;;30.17;;
73337;SDS011;61575;49.908;35.556;2024-02-23T17:15:38;38.10;;;17.50;;
73337;SDS011;61575;49.908;35.556;2024-02-23T17:18:40;32.70;;;15.70;;
73337;SDS011;61575;49.908;35.556;2024-02-23T17:21:42;29.75;;;15.45;;
73337;SDS011;61575;49.908;35.556;2024-02-23T17:24:44;32.93;;;17.20;;
73337;SDS011;61575;49.908;35.556;2024-02-23T17:27:46;31.63;;;14.13;;
73337;SDS011;61575;49.908;35.556;2024-02-23T17:30:48;29.03;;;13.80;;
73337;SDS011;61575;49.908;35.556;2024-02-23T17:33:50;31.02;;;14.50;;
73337;SDS011;61575;49.908;35.556;2024-02-23T17:36:53;31.83;;;15.07;;
73337;SDS011;61575;49.908;35.556;2024-02-23T17:39:55;26.45;;;12.20;;
73337;SDS011;61575;49.908;35.556;2024-02-23T17:42:57;29.45;;;13.40;;
73337;SDS011;61575;49.908;35.556;2024-02-23T17:45:59;35.53;;;16.20;;
73337;SDS011;61575;49.908;35.556;2024-02-23T17:49:02;44.67;;;21.40;;
73337;SDS011;61575;49.908;35.556;2024-02-23T17:52:04;36.67;;;15.52;;